Mackinaw City, MI

3:44 PM EST on February 06, 2016 (GMT -0500)
MesoWest | | Change Station
CLOSE
Current Station
Personal Weather Station
Location: Mackinaw City, MI
Elevation: 646 ft
Nearby Weather Stations

Elev 646 ft 45.76 °N, 84.73 °W | Updated 34 minutes ago

Overcast
Overcast
29 °F
Feels Like 23 °F
N
6
Wind Variable Wind from NW
Gusts 16.0 mph

Today
High -- | Low -- °F
--% Chance of Precip.
Yesterday
High -- | Low -- °F
Precip. -- in
Pressure 30.02 in
Visibility 10.0 miles
Clouds Overcast 3700 ft
Windchill 23 °F
Dew Point 21 °F
Humidity 69%
Rainfall in
Snow Depth Not available.
7:54 AM 5:51 PM
Waning Crescent, 4% visible
METAR KMCD 062037Z AUTO 24010G17KT 10SM OVC037 M02/M06 A3002 RMK AO2 T10171057
Pressure 30.02 in
Visibility 10.0 miles
Clouds Overcast 3700 ft
Windchill 23 °F
Dew Point 21 °F
Humidity 69%
Rainfall in
Snow Depth Not available.
7:54 AM 5:51 PM
Waning Crescent, 4% visible
METAR KMCD 062037Z AUTO 24010G17KT 10SM OVC037 M02/M06 A3002 RMK AO2 T10171057

10-Day Weather Forecast

Almanac

Astronomy

Feb. 06, 2016 Rise Set
Actual Time
Civil Twilight
Nautical Twilight
Astronomical Twilight
Moon
Length of Visible Light
Length of Day
Tomorrow will be .
, % of the Moon is Illuminated

Today's Extremes

State Highs State Lows

Community

WunderPhotos

Upload Photos

1,891,046 photos uploaded!

WunderBlog® & News

Nearby

Air Quality

  Air Quality AQ Index Pollutant
Not available.

Snow Depth

Station Depth Elevation

Earthquake Activity

City Distance Mag. Time & Date
Minimum magnitude displayed is 2.5.

Coastal Water Temperatures

Place Temperature

Stations

Nearby Weather Stations

Station Location Temp. Windchill Dew Point Humidity Wind Precip. Elev Updated Type
                   

Watches & Warnings

There are currently no watches in effect.